Time;durP1;ratioP1;P1;durP2;ratioP2;P2;SDS_P1;SDS_P2;PMS_P1;PMS_P2;Temp;Humidity;BMP_temperature;BMP_pressure;BME280_temperature;BME280_humidity;BME280_pressure;Samples;Min_cycle;Max_cycle;Signal;HPM_P1;HPM_P2
2023/08/31 03:00:48;;;;;;;;;;;22.00;58.20;;;;;;5767003;23;45914;-83
2023/08/31 03:03:14;;;;;;;;;;;22.00;58.20;;;;;;4872643;28;45675;-83
2023/08/31 03:05:40;;;;;;;;;;;22.00;58.30;;;;;;4880194;28;45473;-81
2023/08/31 03:08:05;;;;;;;;;;;22.00;58.30;;;;;;4875576;28;45154;-83
2023/08/31 03:10:31;;;;;;;;;;;22.00;58.20;;;;;;4886277;29;46101;-82
2023/08/31 03:12:57;;;;;;;;;;;22.00;58.20;;;;;;4854055;29;45878;-84
2023/08/31 03:15:23;;;;;;;;;;;22.00;58.20;;;;;;4868818;29;44971;-82
2023/08/31 03:17:48;;;;;;;;;;;22.00;58.20;;;;;;4858247;29;45204;-82
2023/08/31 03:20:14;;;;;;;;;;;22.00;58.30;;;;;;4855601;29;46196;-83
2023/08/31 03:22:39;;;;;;;;;;;22.00;58.20;;;;;;4874695;29;45515;-83
2023/08/31 03:25:06;;;;;;;;;;;22.00;58.20;;;;;;4859633;29;45546;-83
2023/08/31 03:27:31;;;;;;;;;;;22.00;58.20;;;;;;4858991;29;45185;-84
2023/08/31 03:29:57;;;;;;;;;;;22.00;58.20;;;;;;4858637;29;46232;-81
2023/08/31 03:32:22;;;;;;;;;;;22.00;58.30;;;;;;4836192;29;44978;-82
2023/08/31 03:34:48;;;;;;;;;;;22.00;58.20;;;;;;4860606;29;45057;-81
2023/08/31 03:37:13;;;;;;;;;;;22.00;58.20;;;;;;4871823;29;45041;-83
2023/08/31 03:39:41;;;;;;;;;;;22.00;58.20;;;;;;4849337;29;46614;-82
2023/08/31 03:42:06;;;;;;;;;;;22.00;58.20;;;;;;4881886;29;45403;-82
2023/08/31 03:44:32;;;;;;;;;;;22.00;58.20;;;;;;4863085;29;45501;-82
2023/08/31 03:46:58;;;;;;;;;;;22.00;58.20;;;;;;4848249;29;45361;-82
2023/08/31 03:49:26;;;;;;;;;;;22.00;58.20;;;;;;4890683;29;45663;-82
2023/08/31 03:51:53;;;;;;;;;;;22.00;58.20;;;;;;4844256;29;45120;-82
2023/08/31 03:54:19;;;;;;;;;;;22.00;58.20;;;;;;4890810;28;44781;-82
2023/08/31 03:56:45;;;;;;;;;;;22.00;58.20;;;;;;4870309;29;45141;-82
2023/08/31 03:59:12;;;;;;;;;;;22.00;58.20;;;;;;4857196;29;47015;-84
2023/08/31 04:01:37;;;;;;;;;;;21.90;58.10;;;;;;4851839;28;45031;-82
2023/08/31 04:04:04;;;;;;;;;;;22.00;58.20;;;;;;4849230;29;45047;-83
2023/08/31 04:06:29;;;;;;;;;;;22.00;58.20;;;;;;4868937;29;44739;-81
2023/08/31 04:08:55;;;;;;;;;;;21.90;58.10;;;;;;4876485;29;45168;-82
2023/08/31 04:11:21;;;;;;;;;;;22.00;58.20;;;;;;4853183;29;45517;-83
2023/08/31 04:13:46;;;;;;;;;;;22.00;58.10;;;;;;4859671;29;45481;-82
2023/08/31 04:16:11;;;;;;;;;;;22.00;58.20;;;;;;4834186;29;45222;-83
2023/08/31 04:18:37;;;;;;;;;;;21.90;58.10;;;;;;4858940;29;46359;-81
2023/08/31 04:21:03;;;;;;;;;;;22.00;58.10;;;;;;4835227;28;45121;-84
2023/08/31 04:23:29;;;;;;;;;;;21.90;58.10;;;;;;4855149;29;45257;-82
2023/08/31 04:25:54;;;;;;;;;;;22.00;58.10;;;;;;4872206;29;45155;-83
2023/08/31 04:28:20;;;;;;;;;;;21.90;58.10;;;;;;4869599;29;45975;-82
2023/08/31 04:30:46;;;;;;;;;;;21.90;58.10;;;;;;4885026;28;45511;-84
2023/08/31 04:33:12;;;;;;;;;;;22.00;58.10;;;;;;4869827;29;45707;-82
2023/08/31 04:35:37;;;;;;;;;;;21.90;58.00;;;;;;4839663;29;45009;-82
2023/08/31 04:38:03;;;;;;;;;;;21.90;58.10;;;;;;4858472;29;45621;-83
2023/08/31 04:40:31;;;;;;;;;;;21.90;58.00;;;;;;4860709;28;45403;-83
2023/08/31 04:42:57;;;;;;;;;;;21.90;58.00;;;;;;4876071;28;45472;-82
2023/08/31 04:45:23;;;;;;;;;;;22.00;58.10;;;;;;4887269;29;45318;-82
2023/08/31 04:47:50;;;;;;;;;;;22.00;58.10;;;;;;4868344;29;45677;-83
2023/08/31 04:50:17;;;;;;;;;;;21.90;58.00;;;;;;4876834;29;45297;-84
2023/08/31 04:52:42;;;;;;;;;;;21.90;58.00;;;;;;4874340;29;45467;-82
2023/08/31 04:55:08;;;;;;;;;;;22.00;58.10;;;;;;4858275;29;45625;-82
2023/08/31 04:57:34;;;;;;;;;;;21.90;58.00;;;;;;4842015;29;46162;-83
2023/08/31 04:59:59;;;;;;;;;;;21.90;58.00;;;;;;4889354;28;45474;-84
2023/08/31 05:02:25;;;;;;;;;;;21.90;58.00;;;;;;4851897;29;45124;-83
2023/08/31 05:04:50;;;;;;;;;;;21.90;58.00;;;;;;4876295;29;45218;-82
2023/08/31 05:07:16;;;;;;;;;;;21.90;58.00;;;;;;4857589;29;46604;-82
2023/08/31 05:09:43;;;;;;;;;;;21.90;58.00;;;;;;4879117;29;45241;-83
2023/08/31 05:12:08;;;;;;;;;;;21.90;58.00;;;;;;4854561;29;44772;-82
2023/08/31 05:14:37;;;;;;;;;;;21.90;58.00;;;;;;4891051;29;45568;-82
2023/08/31 05:17:07;;;;;;;;;;;21.90;58.00;;;;;;4869680;29;45471;-83
2023/08/31 05:19:32;;;;;;;;;;;21.90;58.00;;;;;;4873479;29;45254;-83
2023/08/31 05:21:58;;;;;;;;;;;21.90;58.00;;;;;;4875463;29;44963;-83
2023/08/31 05:24:24;;;;;;;;;;;21.90;58.00;;;;;;4863914;29;44866;-83
2023/08/31 05:26:50;;;;;;;;;;;21.90;58.00;;;;;;4892139;28;45125;-84
2023/08/31 05:29:16;;;;;;;;;;;21.90;58.00;;;;;;4881878;29;45120;-84
2023/08/31 05:31:41;;;;;;;;;;;21.90;58.00;;;;;;4859802;29;45709;-84
2023/08/31 05:34:09;;;;;;;;;;;21.90;58.30;;;;;;4889842;29;45476;-84
2023/08/31 05:36:34;;;;;;;;;;;21.90;58.00;;;;;;4853018;29;45330;-84
2023/08/31 05:39:02;;;;;;;;;;;21.90;58.00;;;;;;4877544;29;44862;-83
2023/08/31 05:41:27;;;;;;;;;;;21.90;58.00;;;;;;4856147;29;45394;-83
2023/08/31 05:43:53;;;;;;;;;;;21.90;58.00;;;;;;4873271;29;45485;-83
2023/08/31 05:46:19;;;;;;;;;;;21.90;58.00;;;;;;4855909;29;45963;-83
2023/08/31 05:48:44;;;;;;;;;;;21.90;58.00;;;;;;4878442;29;45505;-83
2023/08/31 05:51:10;;;;;;;;;;;21.90;58.00;;;;;;4858734;29;45507;-83
2023/08/31 05:53:37;;;;;;;;;;;21.90;57.90;;;;;;4869112;29;45459;-83
2023/08/31 05:56:03;;;;;;;;;;;21.90;58.00;;;;;;4887772;29;46649;-83
2023/08/31 05:58:35;;;;;;;;;;;21.90;58.00;;;;;;4891761;29;45798;-84
2023/08/31 06:01:01;;;;;;;;;;;21.90;57.90;;;;;;4861869;29;45249;-82
2023/08/31 06:03:26;;;;;;;;;;;21.90;57.90;;;;;;4843170;29;45432;-82
2023/08/31 06:05:52;;;;;;;;;;;21.90;57.90;;;;;;4819259;29;46015;-84
2023/08/31 06:08:18;;;;;;;;;;;21.90;57.90;;;;;;4854562;29;44734;-84
2023/08/31 06:10:43;;;;;;;;;;;21.90;58.50;;;;;;4853907;29;45563;-86
2023/08/31 06:13:09;;;;;;;;;;;21.90;57.90;;;;;;4858148;29;44835;-83
2023/08/31 06:15:34;;;;;;;;;;;21.90;58.00;;;;;;4841165;29;45760;-83
2023/08/31 06:18:00;;;;;;;;;;;21.90;57.90;;;;;;4868873;29;45007;-84
2023/08/31 06:20:28;;;;;;;;;;;21.90;57.90;;;;;;4847704;29;45057;-83
2023/08/31 06:22:53;;;;;;;;;;;21.90;57.90;;;;;;4842447;29;44860;-82
2023/08/31 06:25:21;;;;;;;;;;;21.90;57.90;;;;;;4836968;29;46194;-83
2023/08/31 06:27:46;;;;;;;;;;;21.90;57.90;;;;;;4839133;29;45663;-86
2023/08/31 06:30:15;;;;;;;;;;;21.90;57.90;;;;;;4842050;29;44881;-83
2023/08/31 06:32:44;;;;;;;;;;;21.90;57.90;;;;;;4851983;29;45573;-82
2023/08/31 06:35:11;;;;;;;;;;;21.90;57.90;;;;;;4855381;29;45940;-83
2023/08/31 06:37:40;;;;;;;;;;;21.90;57.90;;;;;;4840449;29;45287;-83
2023/08/31 06:40:08;;;;;;;;;;;21.90;57.90;;;;;;4838540;29;45214;-85
2023/08/31 06:42:34;;;;;;;;;;;21.90;57.90;;;;;;4829649;29;44899;-83
2023/08/31 06:44:59;;;;;;;;;;;21.90;57.90;;;;;;4858490;29;45123;-83
2023/08/31 06:47:25;;;;;;;;;;;21.90;57.90;;;;;;4835618;29;45699;-84
2023/08/31 06:49:50;;;;;;;;;;;21.90;57.90;;;;;;4867955;29;44711;-82
2023/08/31 06:52:16;;;;;;;;;;;21.90;57.90;;;;;;4823061;29;45496;-82
2023/08/31 06:54:42;;;;;;;;;;;21.90;57.80;;;;;;4858715;29;46170;-85
2023/08/31 06:57:08;;;;;;;;;;;21.90;57.80;;;;;;4861327;29;45434;-83
2023/08/31 06:59:33;;;;;;;;;;;21.90;57.80;;;;;;4857454;29;46139;-84
2023/08/31 07:01:59;;;;;;;;;;;21.90;57.80;;;;;;4845031;29;45213;-84
2023/08/31 07:04:27;;;;;;;;;;;21.80;57.80;;;;;;4873455;29;45496;-84
2023/08/31 07:06:52;;;;;;;;;;;21.80;57.80;;;;;;4837828;29;45448;-84
2023/08/31 07:09:18;;;;;;;;;;;21.90;57.80;;;;;;4844031;29;45311;-83
2023/08/31 07:11:43;;;;;;;;;;;21.80;57.80;;;;;;4872850;29;45147;-83
2023/08/31 07:14:15;;;;;;;;;;;21.90;57.90;;;;;;4854030;29;46427;-83
2023/08/31 07:16:41;;;;;;;;;;;21.80;57.80;;;;;;4875169;29;45062;-84
2023/08/31 07:19:07;;;;;;;;;;;21.80;57.80;;;;;;4879440;29;44775;-84
2023/08/31 07:21:33;;;;;;;;;;;21.80;57.80;;;;;;4861522;29;45184;-84
2023/08/31 07:23:58;;;;;;;;;;;21.90;57.90;;;;;;4883491;29;46154;-82
2023/08/31 07:26:23;;;;;;;;;;;21.80;57.80;;;;;;4861645;29;46476;-82
2023/08/31 07:28:49;;;;;;;;;;;21.80;57.80;;;;;;4881629;29;45445;-82
2023/08/31 07:31:16;;;;;;;;;;;21.90;57.80;;;;;;4879669;29;44752;-85
2023/08/31 07:33:42;;;;;;;;;;;21.80;57.80;;;;;;4862226;29;45414;-82
2023/08/31 07:36:08;;;;;;;;;;;21.80;57.80;;;;;;4880592;29;45531;-82
2023/08/31 07:38:34;;;;;;;;;;;21.80;57.80;;;;;;4882782;29;45540;-82
2023/08/31 07:40:59;;;;;;;;;;;21.80;57.80;;;;;;4844424;29;45232;-83
2023/08/31 07:43:25;;;;;;;;;;;21.80;57.80;;;;;;4852951;29;46746;-83
2023/08/31 07:45:52;;;;;;;;;;;21.80;57.80;;;;;;4873966;29;45372;-83
2023/08/31 07:48:17;;;;;;;;;;;21.80;57.80;;;;;;4876421;29;44910;-84
2023/08/31 07:50:43;;;;;;;;;;;21.80;57.80;;;;;;4863722;29;45601;-82
2023/08/31 07:53:09;;;;;;;;;;;21.80;57.80;;;;;;4869665;29;46489;-82
2023/08/31 07:55:35;;;;;;;;;;;21.80;57.80;;;;;;4881371;29;45198;-84
2023/08/31 07:58:01;;;;;;;;;;;21.80;57.80;;;;;;4879511;29;45634;-82
2023/08/31 08:00:26;;;;;;;;;;;21.80;57.80;;;;;;4864976;29;45573;-82
2023/08/31 08:02:52;;;;;;;;;;;21.80;57.80;;;;;;4851152;29;46011;-82
2023/08/31 08:05:18;;;;;;;;;;;21.80;57.80;;;;;;4866542;29;46137;-82
2023/08/31 08:07:43;;;;;;;;;;;21.80;57.80;;;;;;4868425;29;44820;-82
2023/08/31 08:10:11;;;;;;;;;;;21.80;57.80;;;;;;4870366;29;45172;-85
2023/08/31 08:12:40;;;;;;;;;;;21.80;57.80;;;;;;4858117;29;46382;-82
2023/08/31 08:15:09;;;;;;;;;;;21.80;57.80;;;;;;4874194;29;45002;-83
2023/08/31 08:17:35;;;;;;;;;;;21.80;57.80;;;;;;4870497;29;45359;-85
2023/08/31 08:20:01;;;;;;;;;;;21.80;57.80;;;;;;4869537;29;45105;-83
2023/08/31 08:22:27;;;;;;;;;;;21.80;57.70;;;;;;4883986;29;46405;-82
2023/08/31 08:24:53;;;;;;;;;;;21.80;57.80;;;;;;4892213;29;44879;-82
2023/08/31 08:27:20;;;;;;;;;;;21.80;57.70;;;;;;4869176;29;44877;-86
2023/08/31 08:29:46;;;;;;;;;;;21.80;57.70;;;;;;4876214;29;45228;-82
2023/08/31 08:32:12;;;;;;;;;;;21.80;57.70;;;;;;4878287;29;47264;-83
2023/08/31 08:34:37;;;;;;;;;;;21.80;57.70;;;;;;4905306;28;45527;-82
2023/08/31 08:37:06;;;;;;;;;;;21.80;57.70;;;;;;4862523;29;44998;-84
2023/08/31 08:39:32;;;;;;;;;;;21.80;57.70;;;;;;4871181;29;45429;-82
2023/08/31 08:41:58;;;;;;;;;;;21.80;57.70;;;;;;4879598;29;46644;-83
2023/08/31 08:44:25;;;;;;;;;;;21.80;57.70;;;;;;4869353;29;45311;-82
2023/08/31 08:46:51;;;;;;;;;;;21.80;57.70;;;;;;4860995;29;44721;-82
2023/08/31 08:49:17;;;;;;;;;;;21.80;57.70;;;;;;4853037;29;45296;-82
2023/08/31 08:51:43;;;;;;;;;;;21.80;57.70;;;;;;4877119;29;46544;-82
2023/08/31 08:54:10;;;;;;;;;;;21.80;57.70;;;;;;4891815;29;45849;-83
2023/08/31 08:56:36;;;;;;;;;;;21.80;57.70;;;;;;4885562;29;45717;-82
2023/08/31 08:59:01;;;;;;;;;;;21.80;57.60;;;;;;4867506;29;45969;-83
2023/08/31 09:01:27;;;;;;;;;;;21.80;57.60;;;;;;4878881;29;45395;-81
2023/08/31 09:03:53;;;;;;;;;;;21.80;57.60;;;;;;4884764;29;45182;-82
2023/08/31 09:06:20;;;;;;;;;;;21.80;57.60;;;;;;4869008;29;45236;-82
2023/08/31 09:08:52;;;;;;;;;;;21.80;57.60;;;;;;4866298;29;45403;-82
2023/08/31 09:11:24;;;;;;;;;;;21.80;57.60;;;;;;4879927;29;47323;-82
2023/08/31 09:13:52;;;;;;;;;;;21.80;57.60;;;;;;4874646;29;45421;-82
2023/08/31 09:16:28;;;;;;;;;;;21.80;57.60;;;;;;4865626;29;45226;-82
2023/08/31 09:18:54;;;;;;;;;;;21.80;57.60;;;;;;4895643;29;45527;-82
2023/08/31 09:21:21;;;;;;;;;;;21.80;57.60;;;;;;4878951;29;46475;-82
2023/08/31 09:23:47;;;;;;;;;;;21.80;57.50;;;;;;4855952;29;44681;-82
2023/08/31 09:26:13;;;;;;;;;;;21.80;57.50;;;;;;4869597;29;45414;-82
2023/08/31 09:28:40;;;;;;;;;;;21.80;57.50;;;;;;4847894;29;45234;-83
2023/08/31 09:31:09;;;;;;;;;;;21.90;58.10;;;;;;4846417;29;45319;-82
2023/08/31 09:33:35;;;;;;;;;;;21.80;57.50;;;;;;4885419;29;45408;-82
2023/08/31 09:36:01;;;;;;;;;;;21.80;57.50;;;;;;4859967;29;45130;-82
2023/08/31 09:38:27;;;;;;;;;;;21.80;57.40;;;;;;4880483;29;45235;-82
2023/08/31 09:41:00;;;;;;;;;;;21.80;57.40;;;;;;4873998;29;45797;-82
2023/08/31 09:43:26;;;;;;;;;;;21.80;57.40;;;;;;4862112;29;45591;-82
2023/08/31 09:45:52;;;;;;;;;;;21.90;57.50;;;;;;4846323;29;45218;-82
2023/08/31 09:48:18;;;;;;;;;;;21.90;57.50;;;;;;4899464;29;44866;-83
2023/08/31 09:50:45;;;;;;;;;;;21.90;57.50;;;;;;4865162;29;47199;-83
2023/08/31 09:53:11;;;;;;;;;;;21.80;57.40;;;;;;4851261;29;45291;-83
2023/08/31 09:55:39;;;;;;;;;;;21.90;57.50;;;;;;4847996;29;45166;-83
2023/08/31 09:58:04;;;;;;;;;;;21.80;57.40;;;;;;4885700;29;45551;-82
2023/08/31 10:00:31;;;;;;;;;;;21.80;57.40;;;;;;4854128;29;45667;-83
2023/08/31 10:02:57;;;;;;;;;;;21.80;57.40;;;;;;4881024;29;45359;-83
2023/08/31 10:05:23;;;;;;;;;;;21.80;57.40;;;;;;4874993;29;45007;-82
2023/08/31 10:07:49;;;;;;;;;;;21.80;57.40;;;;;;4881432;29;45584;-82
2023/08/31 10:10:15;;;;;;;;;;;21.80;57.40;;;;;;4865836;29;45931;-82
2023/08/31 10:12:41;;;;;;;;;;;21.90;57.50;;;;;;4885160;29;45298;-82
2023/08/31 10:15:06;;;;;;;;;;;21.90;57.50;;;;;;4861990;29;45259;-85
2023/08/31 10:17:33;;;;;;;;;;;21.90;57.40;;;;;;4864084;29;45244;-82
2023/08/31 10:19:59;;;;;;;;;;;21.90;57.40;;;;;;4865902;29;45609;-82
2023/08/31 10:22:24;;;;;;;;;;;21.90;57.40;;;;;;4876545;29;45181;-82
2023/08/31 10:24:57;;;;;;;;;;;21.90;57.40;;;;;;4882494;29;45552;-83
2023/08/31 10:27:23;;;;;;;;;;;21.90;57.30;;;;;;4860931;29;45422;-82
2023/08/31 10:29:49;;;;;;;;;;;21.90;57.30;;;;;;4864725;29;47911;-82
2023/08/31 10:32:21;;;;;;;;;;;21.90;57.30;;;;;;4874681;29;45868;-82
2023/08/31 10:35:09;;;;;;;;;;;21.80;57.20;;;;;;4868740;29;45452;-82
2023/08/31 10:37:35;;;;;;;;;;;21.90;57.30;;;;;;4849820;29;45472;-82
2023/08/31 10:40:11;;;;;;;;;;;21.80;57.20;;;;;;4900192;28;47068;-82
2023/08/31 10:42:47;;;;;;;;;;;21.90;57.10;;;;;;4865610;29;45574;-82
2023/08/31 10:45:13;;;;;;;;;;;21.80;57.10;;;;;;4864354;29;45187;-85
2023/08/31 10:47:42;;;;;;;;;;;21.90;57.10;;;;;;4872593;29;45387;-82
2023/08/31 10:50:18;;;;;;;;;;;21.80;57.00;;;;;;4863284;29;47139;-83
2023/08/31 10:52:44;;;;;;;;;;;21.90;57.10;;;;;;4883096;29;45251;-83
2023/08/31 10:55:10;;;;;;;;;;;21.80;57.00;;;;;;4863069;29;45616;-85
2023/08/31 10:57:36;;;;;;;;;;;21.80;56.90;;;;;;4893353;29;44823;-84
2023/08/31 11:00:02;;;;;;;;;;;21.90;57.00;;;;;;4893277;28;46325;-82
2023/08/31 11:02:34;;;;;;;;;;;21.90;57.00;;;;;;4844333;29;45316;-85
2023/08/31 11:05:06;;;;;;;;;;;21.90;57.00;;;;;;4882237;29;45368;-82
2023/08/31 11:07:34;;;;;;;;;;;21.90;57.00;;;;;;4896784;29;45227;-83
2023/08/31 11:10:07;;;;;;;;;;;21.90;57.00;;;;;;4862809;29;45592;-83
2023/08/31 11:12:32;;;;;;;;;;;21.90;57.00;;;;;;4853227;29;46073;-82
2023/08/31 11:14:58;;;;;;;;;;;21.90;57.00;;;;;;4897521;28;45188;-81
2023/08/31 11:17:24;;;;;;;;;;;21.90;56.90;;;;;;4875836;29;45505;-82
2023/08/31 11:19:49;;;;;;;;;;;21.90;56.90;;;;;;4884909;29;46235;-82
2023/08/31 11:22:15;;;;;;;;;;;21.90;56.90;;;;;;4846668;29;45918;-82
2023/08/31 11:24:41;;;;;;;;;;;21.90;56.90;;;;;;4878249;29;45357;-82
2023/08/31 11:27:12;;;;;;;;;;;21.90;56.90;;;;;;4868510;29;45286;-82
2023/08/31 11:29:39;;;;;;;;;;;21.90;56.80;;;;;;4878974;29;46310;-82
2023/08/31 11:32:04;;;;;;;;;;;21.90;56.80;;;;;;4877524;29;44773;-82
2023/08/31 11:34:30;;;;;;;;;;;21.90;56.80;;;;;;4858681;29;45306;-82
2023/08/31 11:36:55;;;;;;;;;;;21.90;56.80;;;;;;4849144;29;45440;-82
2023/08/31 11:39:21;;;;;;;;;;;21.90;56.70;;;;;;4887997;29;46793;-82
2023/08/31 11:41:47;;;;;;;;;;;21.90;56.70;;;;;;4883995;29;44730;-82
2023/08/31 11:44:13;;;;;;;;;;;21.90;56.70;;;;;;4850215;29;45245;-83
2023/08/31 11:46:39;;;;;;;;;;;21.90;56.70;;;;;;4875984;29;45061;-80
2023/08/31 11:49:05;;;;;;;;;;;21.90;56.70;;;;;;4854676;29;46273;-82
2023/08/31 11:51:32;;;;;;;;;;;21.90;56.70;;;;;;4860088;29;45352;-82
2023/08/31 11:53:59;;;;;;;;;;;21.90;56.60;;;;;;4884561;28;45121;-83
2023/08/31 11:56:25;;;;;;;;;;;21.90;56.60;;;;;;4866422;29;45885;-82
2023/08/31 11:58:51;;;;;;;;;;;21.90;56.60;;;;;;4881324;29;46456;-83
2023/08/31 12:01:20;;;;;;;;;;;21.90;56.60;;;;;;4864203;29;45420;-83
2023/08/31 12:03:46;;;;;;;;;;;21.90;56.60;;;;;;4864750;29;45121;-83
2023/08/31 12:06:14;;;;;;;;;;;21.90;56.60;;;;;;4870725;29;45244;-83
2023/08/31 12:08:40;;;;;;;;;;;21.90;56.60;;;;;;4865945;29;46738;-83
2023/08/31 12:11:08;;;;;;;;;;;21.90;56.50;;;;;;4852772;29;44705;-83
2023/08/31 12:13:34;;;;;;;;;;;21.90;56.50;;;;;;4875713;29;44749;-83
2023/08/31 12:16:01;;;;;;;;;;;21.90;56.50;;;;;;4873082;29;45217;-83
2023/08/31 12:18:29;;;;;;;;;;;21.90;56.50;;;;;;4869450;29;46614;-83
2023/08/31 12:20:55;;;;;;;;;;;21.80;56.40;;;;;;4863492;29;44784;-83
2023/08/31 12:23:23;;;;;;;;;;;21.90;56.50;;;;;;4887890;29;45188;-82
2023/08/31 12:25:49;;;;;;;;;;;21.90;56.50;;;;;;4881886;29;45146;-83
2023/08/31 12:28:16;;;;;;;;;;;21.90;56.50;;;;;;4865726;29;45587;-83
2023/08/31 12:30:42;;;;;;;;;;;21.90;56.40;;;;;;4866927;29;44677;-83
2023/08/31 12:33:08;;;;;;;;;;;21.90;56.40;;;;;;4879308;29;45265;-83
2023/08/31 12:35:37;;;;;;;;;;;21.90;56.40;;;;;;4867045;29;46104;-82
2023/08/31 12:38:04;;;;;;;;;;;21.90;56.30;;;;;;4885340;29;45262;-83
2023/08/31 12:40:30;;;;;;;;;;;21.80;56.30;;;;;;4867813;29;45798;-83
2023/08/31 12:42:56;;;;;;;;;;;21.80;56.30;;;;;;4873273;29;44677;-83
2023/08/31 12:45:21;;;;;;;;;;;21.90;56.30;;;;;;4898985;29;45254;-83
2023/08/31 12:47:47;;;;;;;;;;;21.90;56.20;;;;;;4868268;29;46426;-83
2023/08/31 12:50:13;;;;;;;;;;;21.80;56.10;;;;;;4864706;29;45646;-84
2023/08/31 12:52:44;;;;;;;;;;;21.80;56.10;;;;;;4897531;28;45678;-81
2023/08/31 12:55:10;;;;;;;;;;;21.80;56.10;;;;;;4859231;29;45603;-83
2023/08/31 12:57:35;;;;;;;;;;;21.90;56.10;;;;;;4851715;29;46502;-82
2023/08/31 13:00:02;;;;;;;;;;;21.90;56.10;;;;;;4862067;29;45150;-83
2023/08/31 13:02:28;;;;;;;;;;;21.90;56.10;;;;;;4866961;28;45098;-82
2023/08/31 13:04:54;;;;;;;;;;;21.90;56.10;;;;;;4866869;29;45350;-84
2023/08/31 13:07:19;;;;;;;;;;;21.90;56.00;;;;;;4868352;29;45528;-84
2023/08/31 13:09:45;;;;;;;;;;;21.90;56.00;;;;;;4851360;29;45078;-81
2023/08/31 13:12:11;;;;;;;;;;;21.80;56.00;;;;;;4859405;29;45004;-82
2023/08/31 13:14:36;;;;;;;;;;;21.90;56.00;;;;;;4899700;29;44986;-82
2023/08/31 13:17:03;;;;;;;;;;;21.90;56.00;;;;;;4872800;29;45596;-82
2023/08/31 13:19:29;;;;;;;;;;;21.90;55.90;;;;;;4862523;29;45312;-84
2023/08/31 13:21:55;;;;;;;;;;;21.80;55.90;;;;;;4880590;29;44781;-82
2023/08/31 13:24:21;;;;;;;;;;;21.90;55.90;;;;;;4866014;29;44727;-82
2023/08/31 13:26:48;;;;;;;;;;;21.90;56.00;;;;;;4864965;29;45928;-82
2023/08/31 13:29:14;;;;;;;;;;;21.90;56.00;;;;;;4879525;29;44645;-82
2023/08/31 13:31:40;;;;;;;;;;;21.90;56.00;;;;;;4843884;29;45411;-81
2023/08/31 13:34:07;;;;;;;;;;;21.90;56.00;;;;;;4882561;29;44988;-82
2023/08/31 13:36:33;;;;;;;;;;;21.90;56.00;;;;;;4862914;29;45423;-83
2023/08/31 13:38:59;;;;;;;;;;;21.90;56.00;;;;;;4883590;29;44983;-82
2023/08/31 13:41:25;;;;;;;;;;;21.90;56.00;;;;;;4873636;29;44684;-83
2023/08/31 13:43:54;;;;;;;;;;;21.90;56.00;;;;;;4871863;29;45458;-82
2023/08/31 13:46:20;;;;;;;;;;;21.90;56.00;;;;;;4888355;29;46348;-82
2023/08/31 13:48:45;;;;;;;;;;;21.90;56.00;;;;;;4866178;29;45156;-82
2023/08/31 13:51:11;;;;;;;;;;;21.90;56.00;;;;;;4852847;29;45167;-83
2023/08/31 13:53:36;;;;;;;;;;;21.90;56.00;;;;;;4867726;29;45630;-82
2023/08/31 13:56:02;;;;;;;;;;;21.90;56.00;;;;;;4898387;29;45375;-82
2023/08/31 13:58:27;;;;;;;;;;;21.90;56.00;;;;;;4888885;29;45231;-82
2023/08/31 14:00:53;;;;;;;;;;;21.90;56.00;;;;;;4863461;29;45144;-82
2023/08/31 14:03:19;;;;;;;;;;;21.90;56.00;;;;;;4861639;29;45509;-83
2023/08/31 14:05:48;;;;;;;;;;;21.90;56.00;;;;;;4880768;29;45278;-81
2023/08/31 14:08:14;;;;;;;;;;;21.90;56.00;;;;;;4854609;29;45206;-82
2023/08/31 14:10:39;;;;;;;;;;;21.90;56.00;;;;;;4876451;29;45234;-81
2023/08/31 14:13:05;;;;;;;;;;;21.90;56.00;;;;;;4870297;29;45603;-82
2023/08/31 14:15:31;;;;;;;;;;;22.00;56.00;;;;;;4880629;29;45573;-82
2023/08/31 14:17:57;;;;;;;;;;;21.90;56.00;;;;;;4896298;28;45425;-82
2023/08/31 14:20:22;;;;;;;;;;;21.90;56.00;;;;;;4860834;29;44778;-82
2023/08/31 14:22:48;;;;;;;;;;;21.90;56.00;;;;;;4866744;29;45376;-84
2023/08/31 14:25:14;;;;;;;;;;;21.90;56.00;;;;;;4862362;29;45800;-82
2023/08/31 14:27:39;;;;;;;;;;;21.90;56.00;;;;;;4852782;28;44810;-81
2023/08/31 14:30:06;;;;;;;;;;;22.00;56.00;;;;;;4850143;29;45186;-85
2023/08/31 14:32:32;;;;;;;;;;;22.00;56.00;;;;;;4861255;28;44895;-83
2023/08/31 14:34:57;;;;;;;;;;;21.90;55.90;;;;;;4865808;29;46516;-82
2023/08/31 14:37:23;;;;;;;;;;;21.90;55.90;;;;;;4864455;28;45315;-82
2023/08/31 14:39:49;;;;;;;;;;;22.00;56.00;;;;;;4856842;29;45120;-82
2023/08/31 14:42:20;;;;;;;;;;;22.00;56.60;;;;;;4860197;29;45369;-82
2023/08/31 14:44:51;;;;;;;;;;;22.00;55.90;;;;;;4865381;29;45504;-80
2023/08/31 14:47:16;;;;;;;;;;;22.00;56.00;;;;;;4876155;29;45270;-82
2023/08/31 14:49:42;;;;;;;;;;;22.00;56.00;;;;;;4844466;29;45472;-82
2023/08/31 14:52:08;;;;;;;;;;;22.00;55.90;;;;;;4879897;29;45624;-82
2023/08/31 14:54:33;;;;;;;;;;;22.00;55.90;;;;;;4883220;29;45636;-82
2023/08/31 14:56:59;;;;;;;;;;;22.00;55.90;;;;;;4865478;28;45199;-82
2023/08/31 14:59:25;;;;;;;;;;;22.00;55.90;;;;;;4883726;29;45089;-80
2023/08/31 15:01:51;;;;;;;;;;;22.00;55.90;;;;;;4846568;29;45738;-82
2023/08/31 15:04:16;;;;;;;;;;;21.90;55.90;;;;;;4869561;29;47058;-82
2023/08/31 15:06:42;;;;;;;;;;;22.00;55.90;;;;;;4893132;29;45410;-82
2023/08/31 15:09:10;;;;;;;;;;;22.00;56.00;;;;;;4866299;29;45387;-82
2023/08/31 15:11:36;;;;;;;;;;;22.00;55.90;;;;;;4881609;29;45275;-81
2023/08/31 15:14:03;;;;;;;;;;;22.00;55.90;;;;;;4859476;29;45519;-82
2023/08/31 15:16:29;;;;;;;;;;;22.00;55.90;;;;;;4861437;29;44828;-82
2023/08/31 15:18:55;;;;;;;;;;;22.00;55.90;;;;;;4885060;29;45122;-82
2023/08/31 15:21:20;;;;;;;;;;;22.00;55.90;;;;;;4849919;28;45542;-81
2023/08/31 15:23:46;;;;;;;;;;;22.00;55.90;;;;;;4871006;29;46420;-82
2023/08/31 15:26:14;;;;;;;;;;;22.00;55.90;;;;;;4862946;29;45451;-81
2023/08/31 15:28:40;;;;;;;;;;;22.00;55.90;;;;;;4866497;29;45532;-82
2023/08/31 15:31:05;;;;;;;;;;;22.00;55.90;;;;;;4857088;29;45323;-80
2023/08/31 15:33:31;;;;;;;;;;;22.00;55.90;;;;;;4872975;29;46631;-82
2023/08/31 15:36:06;;;;;;;;;;;22.00;55.90;;;;;;4879457;29;45353;-83
2023/08/31 15:38:32;;;;;;;;;;;22.00;55.90;;;;;;4873526;28;45330;-82
2023/08/31 15:40:58;;;;;;;;;;;22.00;55.90;;;;;;4857467;29;45719;-83
2023/08/31 15:43:24;;;;;;;;;;;22.00;55.80;;;;;;4864353;29;45675;-83
2023/08/31 15:45:49;;;;;;;;;;;22.00;55.80;;;;;;4877537;29;44995;-82
2023/08/31 15:48:15;;;;;;;;;;;22.00;55.90;;;;;;4868579;29;45711;-81
2023/08/31 15:50:40;;;;;;;;;;;22.00;55.90;;;;;;4853009;29;45630;-83
2023/08/31 15:53:06;;;;;;;;;;;22.00;55.80;;;;;;4864975;29;46572;-82
2023/08/31 15:55:32;;;;;;;;;;;22.00;55.90;;;;;;4861060;29;45527;-82
2023/08/31 15:57:57;;;;;;;;;;;22.00;55.90;;;;;;4882986;28;44674;-83
2023/08/31 16:00:23;;;;;;;;;;;22.00;55.90;;;;;;4844925;28;45638;-81
2023/08/31 16:02:48;;;;;;;;;;;22.00;55.90;;;;;;4880236;29;45424;-82
2023/08/31 16:05:28;;;;;;;;;;;22.00;55.80;;;;;;4852105;28;45981;-82
2023/08/31 16:07:53;;;;;;;;;;;22.00;55.80;;;;;;4869557;29;44771;-83
2023/08/31 16:10:19;;;;;;;;;;;22.00;55.90;;;;;;4865684;29;45330;-82
2023/08/31 16:12:44;;;;;;;;;;;22.00;55.90;;;;;;4852094;29;46908;-83
2023/08/31 16:15:10;;;;;;;;;;;22.00;55.90;;;;;;4865321;29;45307;-84
2023/08/31 16:17:35;;;;;;;;;;;22.00;55.90;;;;;;4848012;29;46253;-82
2023/08/31 16:20:01;;;;;;;;;;;22.00;55.90;;;;;;4867427;29;46203;-84
2023/08/31 16:22:28;;;;;;;;;;;22.00;55.90;;;;;;4881024;29;45832;-85
2023/08/31 16:24:54;;;;;;;;;;;22.00;55.90;;;;;;4881812;29;45171;-82
2023/08/31 16:27:19;;;;;;;;;;;22.00;56.50;;;;;;4851538;29;45195;-82
2023/08/31 16:29:47;;;;;;;;;;;22.00;55.90;;;;;;4871265;29;45240;-82
2023/08/31 16:32:13;;;;;;;;;;;22.00;55.90;;;;;;4859219;29;46867;-83
2023/08/31 16:34:39;;;;;;;;;;;22.00;55.90;;;;;;4866882;29;45779;-82
2023/08/31 16:37:05;;;;;;;;;;;22.00;55.90;;;;;;4880302;29;45580;-81
2023/08/31 16:39:31;;;;;;;;;;;22.00;55.90;;;;;;4887687;29;45218;-82
2023/08/31 16:41:56;;;;;;;;;;;22.00;55.90;;;;;;4867625;28;45567;-82
2023/08/31 16:44:22;;;;;;;;;;;22.00;55.90;;;;;;4868045;29;45172;-82
2023/08/31 16:46:47;;;;;;;;;;;22.00;55.90;;;;;;4876931;29;45195;-82
2023/08/31 16:49:13;;;;;;;;;;;22.00;55.90;;;;;;4851549;29;45397;-82
2023/08/31 16:51:39;;;;;;;;;;;22.00;55.90;;;;;;4863759;29;45894;-82
2023/08/31 16:54:05;;;;;;;;;;;22.00;55.90;;;;;;4879389;29;45083;-87
2023/08/31 16:56:31;;;;;;;;;;;22.00;55.90;;;;;;4859717;29;45344;-83
2023/08/31 16:58:58;;;;;;;;;;;22.00;55.80;;;;;;4883905;29;45177;-82
2023/08/31 17:01:24;;;;;;;;;;;22.00;55.80;;;;;;4862154;29;46168;-83
2023/08/31 17:03:49;;;;;;;;;;;22.00;55.90;;;;;;4868386;29;46327;-82
2023/08/31 17:06:15;;;;;;;;;;;22.00;55.90;;;;;;4884724;29;44859;-82
2023/08/31 17:08:41;;;;;;;;;;;22.00;55.90;;;;;;4880294;29;45090;-82
2023/08/31 17:11:06;;;;;;;;;;;22.00;55.90;;;;;;4865099;29;45200;-81